Terminal Aerodrome Forecast
Issued by NWS

Home | Current Version | Previous Version | Text Only | Print | Product List | Glossary Off
Versions: 1 2 3 4 5 6 7 8 9 10 11 12 13 14 15 16 17 18 19 20 21 22 23 24 25 26 27 28

000
FTUS42 KMHX 291700
TAFPGV
TAF
KPGV 291730Z 2918/3018 24010G16KT P6SM BKN250
     FM292100 VRB06KT P6SM SCT035 BKN100
     FM300200 34004KT 5SM -SHRA BR OVC025
     FM301200 03008KT P6SM BKN035
      AMD LTD TO CLD VIS AND WIND=

USA.gov is the U.S. government's official web portal to all federal, state and local government web resources and services.